CheckWX is a tool to help pilots better visualize weather data.  It is not intended as a substitute for an official pre-flight weather briefing.

12:07:20 UTC

2V6 METAR
Yuma Municipalcipal Airport
Yuma, Colorado, USA
Current

13 mins ago

K2V6 251154Z AUTO 00000KT 2SM BR SCT003 SCT095 00/00 A3024 RMK AO2
Observed
Mar-25 @ 11:54 UTC
Visibility
2 SM
Flight Rules
IFR
Conditions
Mist
Cloud Levels
  • Scattered at 300' AGL
  • Scattered at 9,500' AGL
Temperature
C / 32°F
Dewpoint
C / 32°F
Humidity
100%
Altimeter
30.24" Hg
Pressure
1024.02 hPa
Previous

33 mins ago

K2V6 251134Z AUTO 20004KT 1/4SM FG BKN003 00/00 A3023 RMK AO2
Observed
Mar-25 @ 11:34 UTC
Wind
  • 200° at 4 KTS
Visibility
1/4 SM
Flight Rules
LIFR
Conditions
Fog
Cloud Levels
  • Broken at 300' AGL
Temperature
C / 32°F
Dewpoint
C / 32°F
Humidity
100%
Altimeter
30.23" Hg
Pressure
1023.72 hPa
Previous

53 mins ago

K2V6 251114Z AUTO 16005KT 1 1/2SM BR VV007 01/01 A3022 RMK AO2
Observed
Mar-25 @ 11:14 UTC
Wind
  • 160° at 5 KTS
Visibility
1 1/2 SM
Flight Rules
LIFR
Conditions
Mist
Cloud Levels
  • Vertical visibility at 700' AGL
Temperature
C / 34°F
Dewpoint
C / 34°F
Humidity
100%
Altimeter
30.22" Hg
Pressure
1023.42 hPa